Time;durP1;ratioP1;P1;durP2;ratioP2;P2;SDS_P1;SDS_P2;PMS_P1;PMS_P2;Temp;Humidity;BMP_temperature;BMP_pressure;BME280_temperature;BME280_humidity;BME280_pressure;Samples;Min_cycle;Max_cycle;Signal;HPM_P1;HPM_P2
2022/01/03 00:00:26;;;;;;;45.70;6.85;;;;;;;;;;5073406;28;20262;-65
2022/01/03 00:02:53;;;;;;;39.88;7.32;;;;;;;;;;5060174;28;20099;-65
2022/01/03 00:05:20;;;;;;;40.53;6.82;;;;;;;;;;5060087;28;20153;-65
2022/01/03 00:07:46;;;;;;;37.83;6.53;;;;;;;;;;5058183;28;20127;-65
2022/01/03 00:10:14;;;;;;;45.78;7.45;;;;;;;;;;5041032;28;20078;-65
2022/01/03 00:12:41;;;;;;;;;;;;;;;;;;5061606;28;20052;-65
2022/01/03 00:15:08;;;;;;;45.47;6.80;;;;;;;;;;5058931;28;19964;-65
2022/01/03 00:17:42;;;;;;;39.15;7.45;;;;;;;;;;5057504;28;20080;-65
2022/01/03 00:20:09;;;;;;;30.17;5.75;;;;;;;;;;5064192;28;20453;-65
2022/01/03 00:22:54;;;;;;;51.03;7.35;;;;;;;;;;5066155;28;20127;-65
2022/01/03 00:25:23;;;;;;;50.78;6.57;;;;;;;;;;5060744;28;20147;-65
2022/01/03 00:27:57;;;;;;;59.20;8.00;;;;;;;;;;5064884;28;20072;-65
2022/01/03 00:30:24;;;;;;;48.40;7.55;;;;;;;;;;5058863;28;20088;-65
2022/01/03 00:32:51;;;;;;;46.50;7.43;;;;;;;;;;5060409;28;20064;-65
2022/01/03 00:35:19;;;;;;;59.50;8.93;;;;;;;;;;5061611;28;20382;-67
2022/01/03 00:37:47;;;;;;;34.40;7.07;;;;;;;;;;5061155;28;20131;-65
2022/01/03 00:40:15;;;;;;;52.15;6.38;;;;;;;;;;5061345;28;20047;-65
2022/01/03 00:42:41;;;;;;;39.05;6.78;;;;;;;;;;5063495;28;20579;-65
2022/01/03 00:45:08;;;;;;;42.20;6.43;;;;;;;;;;5057516;28;20112;-65
2022/01/03 00:47:35;;;;;;;29.75;6.70;;;;;;;;;;5060041;28;20049;-65
2022/01/03 00:50:22;;;;;;;43.45;6.82;;;;;;;;;;5062117;28;20063;-65
2022/01/03 00:52:55;;;;;;;34.28;6.28;;;;;;;;;;5060126;28;20147;-65
2022/01/03 00:55:21;;;;;;;41.55;5.82;;;;;;;;;;5065707;28;20081;-65
2022/01/03 00:58:07;;;;;;;34.83;5.60;;;;;;;;;;5058008;28;20095;-65
2022/01/03 01:00:41;;;;;;;30.15;5.53;;;;;;;;;;5062643;28;20457;-65
2022/01/03 01:03:12;;;;;;;;;;;;;;;;;;5059559;28;20057;-65
2022/01/03 01:05:43;;;;;;;34.70;5.20;;;;;;;;;;5059262;28;20020;-65
2022/01/03 01:08:11;;;;;;;21.67;5.68;;;;;;;;;;5061909;28;20167;-65
2022/01/03 01:10:39;;;;;;;26.33;4.68;;;;;;;;;;5060294;28;20119;-65
2022/01/03 01:13:05;;;;;;;;;;;;;;;;;;5061858;28;20127;-65
2022/01/03 01:15:32;;;;;;;30.63;5.20;;;;;;;;;;5062392;28;19960;-65
2022/01/03 01:17:59;;;;;;;13.60;3.50;;;;;;;;;;5060900;28;20052;-65
2022/01/03 01:20:26;;;;;;;28.15;5.05;;;;;;;;;;5057860;28;20076;-65
2022/01/03 01:22:59;;;;;;;18.45;4.20;;;;;;;;;;5058127;28;20087;-65
2022/01/03 01:27:45;;;;;;;20.35;3.90;;;;;;;;;;5064132;28;20053;-65
2022/01/03 01:28:13;;;;;;;28.73;4.57;;;;;;;;;;5063852;28;20052;-65
2022/01/03 01:30:40;;;;;;;29.90;4.10;;;;;;;;;;5060121;28;20080;-65
2022/01/03 01:33:14;;;;;;;31.90;5.30;;;;;;;;;;5057580;28;20060;-65
2022/01/03 01:36:09;;;;;;;31.75;4.80;;;;;;;;;;5059762;28;20045;-65
2022/01/03 01:38:38;;;;;;;33.75;5.20;;;;;;;;;;5062483;28;20092;-65
2022/01/03 01:41:06;;;;;;;26.23;5.22;;;;;;;;;;5059323;28;20051;-65
2022/01/03 01:43:40;;;;;;;39.40;6.05;;;;;;;;;;5057446;28;20471;-65
2022/01/03 01:46:09;;;;;;;35.58;5.38;;;;;;;;;;5064731;28;20171;-65
2022/01/03 01:48:37;;;;;;;40.22;6.30;;;;;;;;;;5058521;28;20045;-65
2022/01/03 01:51:04;;;;;;;44.33;5.53;;;;;;;;;;5060041;28;20144;-65
2022/01/03 01:53:31;;;;;;;42.03;5.80;;;;;;;;;;5061946;28;20508;-65
2022/01/03 01:55:58;;;;;;;46.65;5.75;;;;;;;;;;5063554;28;20142;-65
2022/01/03 01:58:36;;;;;;;34.50;5.70;;;;;;;;;;5059555;28;20076;-65
2022/01/03 02:01:07;;;;;;;44.55;6.10;;;;;;;;;;5061426;28;20049;-66
2022/01/03 02:03:57;;;;;;;52.58;6.40;;;;;;;;;;5061137;28;20056;-65
2022/01/03 02:06:43;;;;;;;48.85;6.55;;;;;;;;;;5060648;28;20567;-65
2022/01/03 02:09:37;;;;;;;50.65;6.00;;;;;;;;;;5057335;28;20139;-65
2022/01/03 02:12:05;;;;;;;60.08;6.55;;;;;;;;;;5061884;28;20123;-65
2022/01/03 02:14:36;;;;;;;61.58;6.18;;;;;;;;;;5058132;28;20131;-65
2022/01/03 02:17:03;;;;;;;50.13;6.55;;;;;;;;;;5062471;28;20123;-65
2022/01/03 02:19:29;;;;;;;57.00;6.73;;;;;;;;;;5061712;28;20044;-66
2022/01/03 02:21:56;;;;;;;52.22;6.65;;;;;;;;;;5058803;28;20128;-65
2022/01/03 02:24:22;;;;;;;64.45;7.30;;;;;;;;;;5060996;28;20048;-65
2022/01/03 02:26:49;;;;;;;57.67;6.93;;;;;;;;;;5055258;28;20148;-66
2022/01/03 02:29:15;;;;;;;58.13;7.45;;;;;;;;;;5058317;28;20083;-65
2022/01/03 02:31:42;;;;;;;65.72;7.95;;;;;;;;;;5053373;28;20086;-65
2022/01/03 02:34:19;;;;;;;70.68;7.55;;;;;;;;;;5059713;28;20057;-65
2022/01/03 02:36:45;;;;;;;75.90;7.50;;;;;;;;;;5059512;28;20124;-65
2022/01/03 02:39:13;;;;;;;74.00;8.90;;;;;;;;;;5062849;28;20483;-66
2022/01/03 02:41:41;;;;;;;89.30;8.52;;;;;;;;;;5058093;28;20608;-65
2022/01/03 02:44:07;;;;;;;73.85;8.10;;;;;;;;;;5059053;28;20524;-66
2022/01/03 02:46:34;;;;;;;82.78;9.02;;;;;;;;;;5058041;28;20084;-66
2022/01/03 02:49:03;;;;;;;78.80;7.78;;;;;;;;;;5029276;28;20055;-66
2022/01/03 02:51:29;;;;;;;74.78;7.50;;;;;;;;;;5060869;28;20095;-65
2022/01/03 02:53:56;;;;;;;66.05;8.20;;;;;;;;;;5060988;28;20123;-66
2022/01/03 02:56:23;;;;;;;84.65;8.70;;;;;;;;;;5053525;28;20071;-66
2022/01/03 02:58:49;;;;;;;71.85;8.73;;;;;;;;;;5055858;28;20072;-65
2022/01/03 03:01:15;;;;;;;83.07;9.52;;;;;;;;;;5058316;28;20144;-65
2022/01/03 03:03:43;;;;;;;72.32;8.48;;;;;;;;;;5057886;28;20107;-65
2022/01/03 03:06:09;;;;;;;47.37;6.93;;;;;;;;;;5051520;28;20597;-66
2022/01/03 03:08:36;;;;;;;77.15;9.10;;;;;;;;;;5061499;28;20077;-65
2022/01/03 03:11:03;;;;;;;66.00;8.55;;;;;;;;;;5057528;28;20187;-66
2022/01/03 03:13:29;;;;;;;84.88;11.07;;;;;;;;;;5056856;28;20083;-66
2022/01/03 03:15:55;;;;;;;87.50;9.15;;;;;;;;;;5057108;28;20052;-65
2022/01/03 03:18:24;;;;;;;88.60;9.95;;;;;;;;;;5056326;28;20048;-65
2022/01/03 03:20:54;;;;;;;86.45;9.55;;;;;;;;;;5056619;28;20128;-65
2022/01/03 03:23:23;;;;;;;110.50;12.20;;;;;;;;;;5057778;28;20072;-65
2022/01/03 03:25:50;;;;;;;99.82;10.50;;;;;;;;;;5060395;28;20369;-65
2022/01/03 03:28:16;;;;;;;104.00;10.48;;;;;;;;;;5059892;28;20475;-66
2022/01/03 03:30:47;;;;;;;89.82;11.05;;;;;;;;;;5060706;28;20131;-65
2022/01/03 03:33:16;;;;;;;103.25;11.88;;;;;;;;;;5055510;28;20052;-67
2022/01/03 03:35:43;;;;;;;;;;;;;;;;;;5059535;28;20095;-66
2022/01/03 03:38:09;;;;;;;100.85;9.45;;;;;;;;;;5060663;28;19920;-66
2022/01/03 03:40:38;;;;;;;99.30;10.20;;;;;;;;;;5055303;28;20515;-66
2022/01/03 03:43:05;;;;;;;93.30;10.93;;;;;;;;;;5056618;28;20095;-65
2022/01/03 03:45:32;;;;;;;89.05;9.55;;;;;;;;;;5059064;28;20044;-67
2022/01/03 03:48:06;;;;;;;80.20;9.80;;;;;;;;;;5055176;28;20052;-66
2022/01/03 03:50:32;;;;;;;83.50;10.50;;;;;;;;;;5057126;28;20053;-65
2022/01/03 03:52:58;;;;;;;93.53;10.43;;;;;;;;;;5058755;28;20084;-65
2022/01/03 03:55:25;;;;;;;86.07;9.35;;;;;;;;;;5055828;28;20049;-66
2022/01/03 03:57:52;;;;;;;82.10;9.82;;;;;;;;;;5056684;28;20135;-66
2022/01/03 04:00:18;;;;;;;86.88;9.57;;;;;;;;;;5056880;28;20099;-66
2022/01/03 04:02:46;;;;;;;58.03;7.88;;;;;;;;;;5056182;28;20409;-65
2022/01/03 04:05:13;;;;;;;67.40;7.80;;;;;;;;;;5055050;28;20049;-65
2022/01/03 04:07:39;;;;;;;63.70;7.90;;;;;;;;;;5059557;28;20088;-65
2022/01/03 04:10:07;;;;;;;60.08;7.47;;;;;;;;;;5056857;28;20075;-66
2022/01/03 04:12:33;;;;;;;59.45;7.25;;;;;;;;;;5060780;28;20083;-66
2022/01/03 04:14:59;;;;;;;52.38;7.20;;;;;;;;;;5058724;28;20131;-65
2022/01/03 04:17:26;;;;;;;54.20;6.88;;;;;;;;;;5058491;28;20564;-66
2022/01/03 04:19:52;;;;;;;71.78;7.45;;;;;;;;;;5061001;28;20642;-65
2022/01/03 04:22:19;;;;;;;53.60;5.75;;;;;;;;;;5053791;28;20552;-65
2022/01/03 04:24:45;;;;;;;63.70;7.07;;;;;;;;;;5058017;28;20132;-65
2022/01/03 04:27:11;;;;;;;68.82;7.00;;;;;;;;;;5057079;28;20136;-65
2022/01/03 04:29:38;;;;;;;73.32;7.05;;;;;;;;;;5050895;28;20095;-66
2022/01/03 04:32:08;;;;;;;78.43;7.63;;;;;;;;;;5058319;28;20087;-66
2022/01/03 04:34:35;;;;;;;64.97;6.63;;;;;;;;;;5058589;28;20055;-65
2022/01/03 04:37:01;;;;;;;66.28;7.50;;;;;;;;;;5040481;28;20080;-65
2022/01/03 04:39:28;;;;;;;81.18;9.13;;;;;;;;;;5055304;28;20497;-65
2022/01/03 04:41:54;;;;;;;68.03;7.90;;;;;;;;;;5054706;28;20073;-66
2022/01/03 04:44:21;;;;;;;79.72;9.05;;;;;;;;;;5056081;28;20144;-65
2022/01/03 04:46:47;;;;;;;72.30;8.17;;;;;;;;;;5051830;28;20051;-65
2022/01/03 04:49:14;;;;;;;89.75;9.13;;;;;;;;;;5048079;28;20056;-65
2022/01/03 04:51:40;;;;;;;90.75;10.07;;;;;;;;;;5051788;28;20092;-65
2022/01/03 04:54:13;;;;;;;85.15;10.73;;;;;;;;;;5063518;28;20091;-65
2022/01/03 04:56:39;;;;;;;88.50;10.63;;;;;;;;;;5059494;28;20604;-65
2022/01/03 04:59:06;;;;;;;80.47;10.57;;;;;;;;;;5062660;28;20072;-65
2022/01/03 05:01:32;;;;;;;90.38;10.95;;;;;;;;;;5061580;28;20063;-65
2022/01/03 05:03:59;;;;;;;72.05;9.98;;;;;;;;;;5060060;28;20459;-65
2022/01/03 05:06:26;;;;;;;114.25;11.10;;;;;;;;;;5056983;28;20103;-66
2022/01/03 05:08:53;;;;;;;98.65;9.63;;;;;;;;;;5054421;28;20044;-65
2022/01/03 05:11:19;;;;;;;87.88;10.85;;;;;;;;;;5058749;28;20132;-65
2022/01/03 05:13:45;;;;;;;72.70;10.48;;;;;;;;;;5060160;28;20595;-65
2022/01/03 05:16:14;;;;;;;76.05;9.88;;;;;;;;;;5052966;28;20140;-65
2022/01/03 05:18:40;;;;;;;64.72;9.93;;;;;;;;;;5062250;28;20060;-65
2022/01/03 05:21:07;;;;;;;61.22;9.73;;;;;;;;;;5064526;28;20128;-65
2022/01/03 05:23:34;;;;;;;84.40;10.43;;;;;;;;;;5056518;28;20144;-65
2022/01/03 05:26:00;;;;;;;73.00;10.40;;;;;;;;;;5059058;28;20135;-65
2022/01/03 05:28:26;;;;;;;66.47;9.50;;;;;;;;;;5052827;28;20084;-65
2022/01/03 05:30:53;;;;;;;60.28;10.55;;;;;;;;;;5059147;28;20093;-65
2022/01/03 05:33:19;;;;;;;63.83;9.63;;;;;;;;;;5056174;28;20064;-65
2022/01/03 05:35:46;;;;;;;65.55;10.70;;;;;;;;;;5050379;28;20514;-65
2022/01/03 05:38:19;;;;;;;87.00;10.40;;;;;;;;;;5060714;28;20076;-65
2022/01/03 05:40:46;;;;;;;60.63;9.88;;;;;;;;;;5059826;28;20484;-65
2022/01/03 05:43:12;;;;;;;62.58;9.35;;;;;;;;;;5062186;28;20128;-65
2022/01/03 05:45:39;;;;;;;61.58;9.30;;;;;;;;;;5060886;28;20044;-65
2022/01/03 05:48:05;;;;;;;62.20;10.25;;;;;;;;;;5059583;28;20055;-65
2022/01/03 05:50:32;;;;;;;64.13;10.40;;;;;;;;;;5059360;28;20131;-65
2022/01/03 05:52:58;;;;;;;57.05;7.45;;;;;;;;;;5060941;28;20048;-65
2022/01/03 05:55:25;;;;;;;58.58;8.63;;;;;;;;;;5060353;28;20447;-65
2022/01/03 05:57:51;;;;;;;35.70;6.78;;;;;;;;;;5059470;28;20087;-65
2022/01/03 06:00:24;;;;;;;41.67;7.40;;;;;;;;;;5060138;28;20044;-65
2022/01/03 06:02:55;;;;;;;43.20;7.63;;;;;;;;;;5057008;28;20402;-65
2022/01/03 06:08:04;;;;;;;55.10;8.75;;;;;;;;;;5060394;28;20059;-65
2022/01/03 06:10:30;;;;;;;63.03;10.20;;;;;;;;;;5060457;28;20144;-65
2022/01/03 06:12:57;;;;;;;72.13;11.18;;;;;;;;;;5060830;28;20147;-65
2022/01/03 06:15:25;;;;;;;71.03;10.85;;;;;;;;;;5061805;28;20084;-65
2022/01/03 06:17:52;;;;;;;75.38;11.57;;;;;;;;;;5061024;28;20071;-65
2022/01/03 06:20:18;;;;;;;83.55;11.18;;;;;;;;;;5059188;28;20045;-65
2022/01/03 06:22:45;;;;;;;79.82;12.45;;;;;;;;;;5059480;28;20071;-65
2022/01/03 06:25:11;;;;;;;82.70;12.43;;;;;;;;;;5057996;28;20137;-65
2022/01/03 06:27:38;;;;;;;86.57;12.77;;;;;;;;;;5061069;28;20055;-66
2022/01/03 06:30:06;;;;;;;67.25;12.63;;;;;;;;;;5059290;28;20127;-65
2022/01/03 06:32:33;;;;;;;68.97;12.25;;;;;;;;;;5059492;28;20083;-65
2022/01/03 06:34:59;;;;;;;77.43;12.30;;;;;;;;;;5059355;28;20127;-65
2022/01/03 06:37:26;;;;;;;51.00;11.20;;;;;;;;;;5060525;28;20568;-65
2022/01/03 06:39:55;;;;;;;73.05;11.38;;;;;;;;;;5061708;28;20072;-65
2022/01/03 06:42:21;;;;;;;64.90;12.45;;;;;;;;;;5059122;28;20080;-67
2022/01/03 06:44:49;;;;;;;91.05;13.48;;;;;;;;;;5059606;28;20052;-65
2022/01/03 06:47:18;;;;;;;86.18;13.80;;;;;;;;;;5058767;28;20045;-65
2022/01/03 06:49:45;;;;;;;94.93;14.70;;;;;;;;;;5060426;28;20095;-65
2022/01/03 06:52:12;;;;;;;88.68;15.02;;;;;;;;;;5058637;28;20037;-65
2022/01/03 06:54:45;;;;;;;90.13;14.52;;;;;;;;;;5058732;28;20083;-65
2022/01/03 06:57:12;;;;;;;107.65;15.55;;;;;;;;;;5058586;28;20084;-65
2022/01/03 06:59:38;;;;;;;99.17;15.70;;;;;;;;;;5059953;28;20091;-65
2022/01/03 07:02:18;;;;;;;101.70;15.57;;;;;;;;;;5063149;28;20399;-65
2022/01/03 07:04:44;;;;;;;80.18;15.00;;;;;;;;;;5059931;28;20095;-66
2022/01/03 07:07:11;;;;;;;100.88;14.77;;;;;;;;;;5057734;28;20084;-65
2022/01/03 07:09:37;;;;;;;107.45;15.95;;;;;;;;;;5055968;28;20124;-65
2022/01/03 07:12:04;;;;;;;84.50;14.80;;;;;;;;;;5057984;28;20127;-65
2022/01/03 07:19:52;;;;;;;75.78;14.00;;;;;;;;;;5059301;28;20558;-66
2022/01/03 07:22:20;;;;;;;86.43;13.27;;;;;;;;;;5060524;28;20131;-65
2022/01/03 07:24:47;;;;;;;62.70;10.63;;;;;;;;;;5051935;28;20052;-65
2022/01/03 07:27:14;;;;;;;87.18;13.68;;;;;;;;;;5056168;28;20152;-65
2022/01/03 07:29:48;;;;;;;87.03;13.57;;;;;;;;;;5056283;28;20048;-66
2022/01/03 07:32:15;;;;;;;102.88;14.88;;;;;;;;;;5058041;28;20049;-65
2022/01/03 07:34:41;;;;;;;82.63;13.35;;;;;;;;;;5061705;28;20044;-66
2022/01/03 07:37:09;;;;;;;71.72;14.00;;;;;;;;;;5057255;28;20139;-66
2022/01/03 07:39:36;;;;;;;90.73;13.80;;;;;;;;;;5055484;28;20454;-66
2022/01/03 07:42:03;;;;;;;69.32;12.98;;;;;;;;;;5057935;28;20523;-66
2022/01/03 07:44:29;;;;;;;101.85;15.10;;;;;;;;;;5058850;28;20040;-65
2022/01/03 07:46:56;;;;;;;93.32;14.07;;;;;;;;;;5053915;28;20087;-66
2022/01/03 07:49:23;;;;;;;88.22;14.30;;;;;;;;;;5058009;28;20466;-66
2022/01/03 07:51:53;;;;;;;100.10;13.70;;;;;;;;;;5057635;28;20095;-65
2022/01/03 07:54:20;;;;;;;88.47;14.47;;;;;;;;;;5059647;28;20069;-65
2022/01/03 07:56:47;;;;;;;80.07;12.52;;;;;;;;;;5056086;28;20077;-65
2022/01/03 07:59:21;;;;;;;85.22;12.35;;;;;;;;;;5053810;28;20132;-65
2022/01/03 08:01:48;;;;;;;110.15;13.77;;;;;;;;;;5058733;28;20236;-65
2022/01/03 08:04:14;;;;;;;90.03;13.55;;;;;;;;;;5054514;28;20056;-65
2022/01/03 08:06:53;;;;;;;70.85;11.70;;;;;;;;;;5057215;28;20056;-65
2022/01/03 08:09:19;;;;;;;89.15;14.20;;;;;;;;;;5058660;28;20135;-65
2022/01/03 08:11:46;;;;;;;90.28;11.60;;;;;;;;;;5061509;28;20453;-65
2022/01/03 08:14:13;;;;;;;75.55;14.23;;;;;;;;;;5057993;28;20087;-65
2022/01/03 08:16:39;;;;;;;63.45;12.43;;;;;;;;;;5056080;28;20120;-65
2022/01/03 08:19:06;;;;;;;86.55;12.73;;;;;;;;;;5057448;28;20491;-65
2022/01/03 08:21:32;;;;;;;67.85;11.90;;;;;;;;;;5056375;28;20136;-65
2022/01/03 08:23:58;;;;;;;63.60;10.27;;;;;;;;;;5056822;28;20108;-65
2022/01/03 08:26:25;;;;;;;62.03;11.07;;;;;;;;;;5056064;28;20131;-65
2022/01/03 08:28:52;;;;;;;49.55;10.43;;;;;;;;;;5063758;28;20160;-66
2022/01/03 08:31:18;;;;;;;52.43;10.27;;;;;;;;;;5057000;28;20080;-65
2022/01/03 08:33:45;;;;;;;34.78;10.35;;;;;;;;;;5061948;28;20305;-65
2022/01/03 08:36:11;;;;;;;61.45;11.75;;;;;;;;;;5062576;28;20579;-65
2022/01/03 08:38:37;;;;;;;87.13;12.45;;;;;;;;;;5059975;28;20072;-65
2022/01/03 08:41:04;;;;;;;60.88;11.05;;;;;;;;;;5058421;28;20179;-65
2022/01/03 08:43:30;;;;;;;63.92;12.60;;;;;;;;;;5060570;28;20083;-65
2022/01/03 08:45:57;;;;;;;65.05;12.25;;;;;;;;;;5060645;28;20103;-65
2022/01/03 08:48:24;;;;;;;61.95;11.52;;;;;;;;;;5060901;28;20063;-65
2022/01/03 08:50:50;;;;;;;58.08;11.25;;;;;;;;;;5061826;28;20048;-65
2022/01/03 08:53:17;;;;;;;53.30;11.60;;;;;;;;;;5056142;28;20072;-65
2022/01/03 08:55:43;;;;;;;84.70;13.07;;;;;;;;;;5061485;28;20128;-65
2022/01/03 08:58:12;;;;;;;68.05;10.65;;;;;;;;;;5059616;28;20132;-65
2022/01/03 09:00:38;;;;;;;75.68;11.15;;;;;;;;;;5059894;28;20095;-65
2022/01/03 09:03:05;;;;;;;63.55;12.23;;;;;;;;;;5059724;28;20126;-65
2022/01/03 09:05:31;;;;;;;52.55;10.57;;;;;;;;;;5055533;28;20079;-65
2022/01/03 09:07:57;;;;;;;60.78;10.30;;;;;;;;;;5058580;28;20113;-65
2022/01/03 09:10:24;;;;;;;59.72;11.70;;;;;;;;;;5061791;28;20132;-66
2022/01/03 09:12:51;;;;;;;67.90;10.45;;;;;;;;;;5062723;28;20044;-65
2022/01/03 09:15:17;;;;;;;90.50;12.65;;;;;;;;;;5059859;28;20136;-65
2022/01/03 09:17:47;;;;;;;78.97;11.90;;;;;;;;;;5060942;28;20048;-65
2022/01/03 09:20:14;;;;;;;68.90;12.82;;;;;;;;;;5061196;28;20132;-65
2022/01/03 09:22:44;;;;;;;88.97;12.90;;;;;;;;;;5062495;28;20132;-65
2022/01/03 09:30:36;;;;;;;73.82;11.23;;;;;;;;;;5058300;28;20478;-65
2022/01/03 09:33:03;;;;;;;66.13;12.45;;;;;;;;;;5059060;28;20474;-66
2022/01/03 09:35:29;;;;;;;93.18;13.10;;;;;;;;;;5056191;28;20087;-65
2022/01/03 09:37:56;;;;;;;70.38;11.75;;;;;;;;;;5061485;28;20175;-65
2022/01/03 09:40:22;;;;;;;67.88;12.10;;;;;;;;;;5065030;28;20091;-65
2022/01/03 09:42:56;;;;;;;72.55;11.48;;;;;;;;;;5047331;28;20155;-65
2022/01/03 09:45:25;;;;;;;67.80;11.15;;;;;;;;;;5061095;28;20066;-66
2022/01/03 09:47:52;;;;;;;66.50;10.00;;;;;;;;;;5058175;28;20052;-66
2022/01/03 09:50:21;;;;;;;73.82;11.52;;;;;;;;;;5058320;28;20161;-66
2022/01/03 09:52:55;;;;;;;42.42;9.02;;;;;;;;;;5058956;28;20481;-66
2022/01/03 09:55:22;;;;;;;62.08;10.38;;;;;;;;;;5059423;28;20077;-66
2022/01/03 09:57:48;;;;;;;49.65;9.82;;;;;;;;;;5049054;28;20073;-66
2022/01/03 10:00:22;;;;;;;51.23;8.77;;;;;;;;;;5062192;28;20085;-66
2022/01/03 10:02:52;;;;;;;52.10;10.13;;;;;;;;;;5054850;28;20374;-65
2022/01/03 10:05:19;;;;;;;60.28;10.10;;;;;;;;;;5055922;28;20053;-66
2022/01/03 10:07:46;;;;;;;73.20;9.38;;;;;;;;;;5056995;28;20128;-66
2022/01/03 10:10:13;;;;;;;53.55;8.10;;;;;;;;;;5051251;28;20132;-66
2022/01/03 10:12:39;;;;;;;41.13;8.63;;;;;;;;;;5055516;28;20071;-65
2022/01/03 10:15:07;;;;;;;43.75;8.07;;;;;;;;;;5057202;28;20140;-65
2022/01/03 10:17:34;;;;;;;36.53;7.60;;;;;;;;;;5058651;28;20044;-66
2022/01/03 10:20:00;;;;;;;;;;;;;;;;;;5058487;28;20135;-66
2022/01/03 10:22:28;;;;;;;29.40;6.65;;;;;;;;;;5059899;28;20015;-66
2022/01/03 10:24:56;;;;;;;46.38;7.50;;;;;;;;;;5060722;28;20971;-66
2022/01/03 10:27:33;;;;;;;45.85;7.20;;;;;;;;;;5057514;28;20568;-66
2022/01/03 10:29:59;;;;;;;51.08;7.85;;;;;;;;;;5060411;28;20485;-66
2022/01/03 10:32:27;;;;;;;26.48;6.18;;;;;;;;;;5052128;28;20132;-65
2022/01/03 10:34:57;;;;;;;39.67;7.40;;;;;;;;;;5053797;28;20127;-65
2022/01/03 10:37:36;;;;;;;37.05;7.35;;;;;;;;;;5056941;28;20135;-65
2022/01/03 10:40:16;;;;;;;47.50;6.55;;;;;;;;;;5059656;28;20100;-65
2022/01/03 10:42:43;;;;;;;42.70;7.47;;;;;;;;;;5056164;28;20044;-65
2022/01/03 10:45:10;;;;;;;35.38;6.03;;;;;;;;;;5056505;28;20131;-66
2022/01/03 10:47:37;;;;;;;31.40;5.82;;;;;;;;;;5060298;28;20140;-66
2022/01/03 10:50:13;;;;;;;42.75;6.07;;;;;;;;;;5060301;28;20136;-66
2022/01/03 10:52:46;;;;;;;30.08;5.68;;;;;;;;;;5053150;28;20045;-66
2022/01/03 10:55:17;;;;;;;47.33;6.90;;;;;;;;;;5056145;28;20118;-65
2022/01/03 10:57:43;;;;;;;29.08;5.63;;;;;;;;;;5057159;28;20508;-66
2022/01/03 11:00:36;;;;;;;40.03;6.70;;;;;;;;;;5060612;28;20135;-65
2022/01/03 11:03:22;;;;;;;36.78;6.03;;;;;;;;;;5073804;28;20291;-66
2022/01/03 11:05:55;;;;;;;30.30;5.82;;;;;;;;;;5078210;28;20828;-66
2022/01/03 11:11:08;;;;;;;33.50;5.70;;;;;;;;;;5074732;28;20567;-66
2022/01/03 11:13:42;;;;;;;29.75;5.90;;;;;;;;;;5076536;28;20168;-66
2022/01/03 11:16:09;;;;;;;;;;;;;;;;;;5077280;28;20525;-66
2022/01/03 11:18:36;;;;;;;35.25;5.47;;;;;;;;;;5076792;28;20019;-66
2022/01/03 11:21:04;;;;;;;43.25;6.22;;;;;;;;;;5079570;28;20139;-66
2022/01/03 11:23:31;;;;;;;41.47;6.03;;;;;;;;;;5077569;28;20048;-65
2022/01/03 11:26:03;;;;;;;47.72;5.85;;;;;;;;;;5079491;28;20076;-65
2022/01/03 11:28:30;;;;;;;49.88;5.88;;;;;;;;;;5077613;28;20508;-65
2022/01/03 11:30:57;;;;;;;56.50;7.47;;;;;;;;;;5077055;28;20135;-66
2022/01/03 11:33:25;;;;;;;58.20;8.15;;;;;;;;;;5076300;28;20048;-66
2022/01/03 11:36:11;;;;;;;60.08;7.38;;;;;;;;;;5073253;28;20055;-66
2022/01/03 11:38:39;;;;;;;64.28;7.68;;;;;;;;;;5075515;28;20049;-65
2022/01/03 11:41:10;;;;;;;72.10;8.13;;;;;;;;;;5078684;28;20130;-66
2022/01/03 11:43:38;;;;;;;62.60;7.28;;;;;;;;;;5075497;28;20131;-66
2022/01/03 11:46:05;;;;;;;53.25;7.93;;;;;;;;;;5073381;28;20080;-66
2022/01/03 11:48:32;;;;;;;60.40;8.15;;;;;;;;;;5077195;28;20052;-65
2022/01/03 11:51:02;;;;;;;72.50;7.43;;;;;;;;;;5076709;28;20125;-66
2022/01/03 11:53:30;;;;;;;55.55;8.18;;;;;;;;;;5072896;28;20068;-65
2022/01/03 11:55:58;;;;;;;58.13;7.05;;;;;;;;;;5071693;28;20139;-65
2022/01/03 11:58:43;;;;;;;85.03;9.10;;;;;;;;;;5076460;28;20055;-65
2022/01/03 12:03:57;;;;;;;64.97;7.13;;;;;;;;;;5082901;28;20056;-66
2022/01/03 12:06:31;;;;;;;58.70;7.18;;;;;;;;;;5083764;28;20047;-65
2022/01/03 12:09:03;;;;;;;80.38;8.35;;;;;;;;;;5082653;28;20080;-66
2022/01/03 12:11:31;;;;;;;68.80;7.78;;;;;;;;;;5079577;28;20142;-66
2022/01/03 12:13:58;;;;;;;74.88;8.63;;;;;;;;;;5084552;28;20143;-65
2022/01/03 12:16:24;;;;;;;;;;;;;;;;;;5083744;28;20041;-66
2022/01/03 12:18:58;;;;;;;65.78;6.63;;;;;;;;;;5078426;28;20475;-65
2022/01/03 12:21:43;;;;;;;64.20;8.02;;;;;;;;;;5079738;28;20151;-65
2022/01/03 12:24:28;;;;;;;69.35;7.40;;;;;;;;;;5080645;28;20131;-65
2022/01/03 12:27:11;;;;;;;70.47;8.20;;;;;;;;;;5081305;28;20105;-66
2022/01/03 12:29:50;;;;;;;66.38;7.05;;;;;;;;;;5083663;28;20138;-66
2022/01/03 12:32:16;;;;;;;65.45;6.80;;;;;;;;;;5078055;28;20518;-65
2022/01/03 12:34:42;;;;;;;68.00;7.38;;;;;;;;;;5088241;28;20044;-66
2022/01/03 12:37:16;;;;;;;65.63;7.45;;;;;;;;;;5083655;28;20036;-66
2022/01/03 12:40:01;;;;;;;64.63;7.40;;;;;;;;;;5083213;28;20086;-66
2022/01/03 12:42:53;;;;;;;63.25;7.80;;;;;;;;;;5084512;28;20094;-66
2022/01/03 12:45:29;;;;;;;65.75;7.63;;;;;;;;;;5082868;28;20056;-65
2022/01/03 12:48:15;;;;;;;71.45;7.25;;;;;;;;;;5082763;28;20491;-65
2022/01/03 12:50:42;;;;;;;63.20;7.35;;;;;;;;;;5085876;28;20098;-65
2022/01/03 12:53:24;;;;;;;69.72;7.60;;;;;;;;;;5084181;28;20121;-65
2022/01/03 12:55:53;;;;;;;59.28;7.63;;;;;;;;;;5084770;28;20084;-65
2022/01/03 12:58:20;;;;;;;57.13;6.78;;;;;;;;;;5082626;28;20070;-66
2022/01/03 13:00:57;;;;;;;44.35;5.53;;;;;;;;;;5083786;28;20178;-65
2022/01/03 13:03:23;;;;;;;57.27;6.80;;;;;;;;;;5084204;28;20139;-66
2022/01/03 13:06:10;;;;;;;54.22;7.70;;;;;;;;;;5081495;28;20309;-65
2022/01/03 13:08:39;;;;;;;50.85;6.20;;;;;;;;;;5072359;28;20098;-65
2022/01/03 13:11:12;;;;;;;62.08;6.15;;;;;;;;;;5083935;28;20083;-66
2022/01/03 13:13:44;;;;;;;61.80;5.73;;;;;;;;;;5081848;28;20047;-66
2022/01/03 13:16:23;;;;;;;41.80;4.68;;;;;;;;;;5082561;28;20088;-65
2022/01/03 13:18:50;;;;;;;47.97;5.72;;;;;;;;;;5081179;28;20048;-65
2022/01/03 13:21:20;;;;;;;51.88;6.57;;;;;;;;;;5079947;28;20090;-66
2022/01/03 13:23:53;;;;;;;45.33;5.70;;;;;;;;;;5077942;28;20135;-65
2022/01/03 13:26:24;;;;;;;57.50;5.85;;;;;;;;;;5077391;28;20503;-65
2022/01/03 13:28:52;;;;;;;62.05;6.55;;;;;;;;;;5077546;28;20159;-66
2022/01/03 13:31:18;;;;;;;50.92;7.15;;;;;;;;;;5083301;28;20079;-65
2022/01/03 13:33:53;;;;;;;61.65;7.18;;;;;;;;;;5076439;28;20424;-66
2022/01/03 13:36:20;;;;;;;59.83;7.53;;;;;;;;;;5086862;28;20565;-65
2022/01/03 13:38:46;;;;;;;69.90;8.30;;;;;;;;;;5079013;28;20468;-65
2022/01/03 13:41:15;;;;;;;55.30;7.60;;;;;;;;;;5076878;28;20502;-66
2022/01/03 13:43:46;;;;;;;75.75;9.98;;;;;;;;;;5080579;28;20111;-66
2022/01/03 13:49:12;;;;;;;95.15;9.60;;;;;;;;;;5076650;28;20062;-66
2022/01/03 13:51:45;;;;;;;72.35;8.38;;;;;;;;;;5077974;28;20545;-65
2022/01/03 13:54:31;;;;;;;81.72;8.95;;;;;;;;;;5075741;28;20047;-66
2022/01/03 13:57:01;;;;;;;102.93;11.00;;;;;;;;;;5075502;28;20052;-65
2022/01/03 13:59:28;;;;;;;70.30;8.90;;;;;;;;;;5076797;28;20167;-65
2022/01/03 14:02:02;;;;;;;96.15;10.43;;;;;;;;;;5073687;28;20044;-66
2022/01/03 14:04:29;;;;;;;82.65;10.65;;;;;;;;;;5078983;28;20555;-65
2022/01/03 14:07:03;;;;;;;85.28;9.40;;;;;;;;;;5075511;28;20052;-65
2022/01/03 14:09:34;;;;;;;70.80;9.60;;;;;;;;;;5073949;28;20131;-65
2022/01/03 14:12:16;;;;;;;93.28;9.63;;;;;;;;;;5080786;28;20044;-66
2022/01/03 14:14:48;;;;;;;92.18;10.40;;;;;;;;;;5080548;28;20056;-65
2022/01/03 14:17:15;;;;;;;99.82;10.10;;;;;;;;;;5079903;28;20793;-65
2022/01/03 14:19:41;;;;;;;81.07;8.93;;;;;;;;;;5075061;28;20102;-66
2022/01/03 14:22:15;;;;;;;79.47;8.68;;;;;;;;;;5080287;28;20114;-66
2022/01/03 14:24:54;;;;;;;84.68;11.75;;;;;;;;;;5072728;28;20792;-66
2022/01/03 14:27:21;;;;;;;106.13;10.90;;;;;;;;;;5075691;28;20131;-65
2022/01/03 14:29:48;;;;;;;104.40;11.23;;;;;;;;;;5080399;28;20080;-65
2022/01/03 14:32:15;;;;;;;95.35;10.63;;;;;;;;;;5080267;28;20555;-66
2022/01/03 14:34:49;;;;;;;83.50;10.48;;;;;;;;;;5078536;28;20583;-66
2022/01/03 14:37:24;;;;;;;87.15;9.68;;;;;;;;;;5082125;28;20135;-65
2022/01/03 14:39:54;;;;;;;96.47;9.88;;;;;;;;;;5077008;28;20056;-66
2022/01/03 14:42:36;;;;;;;84.10;10.07;;;;;;;;;;5079649;28;20093;-65
2022/01/03 14:45:08;;;;;;;85.97;9.75;;;;;;;;;;5077862;28;20080;-65
2022/01/03 14:47:34;;;;;;;81.40;8.57;;;;;;;;;;5074995;28;20519;-65
2022/01/03 14:50:03;;;;;;;94.63;10.00;;;;;;;;;;5079141;28;20080;-65
2022/01/03 14:52:33;;;;;;;89.13;9.82;;;;;;;;;;5083416;28;20082;-65
2022/01/03 14:55:00;;;;;;;90.97;10.13;;;;;;;;;;5077874;28;20052;-65
2022/01/03 14:57:29;;;;;;;88.35;8.88;;;;;;;;;;5082229;28;20076;-65
2022/01/03 15:00:01;;;;;;;55.85;7.18;;;;;;;;;;5078174;28;20135;-65